createdAt,value
2023-02-13T00:01:22.759Z,53.20
2023-02-13T00:04:20.994Z,52.40
2023-02-13T00:07:18.669Z,52.00
2023-02-13T00:10:16.905Z,53.30
2023-02-13T00:13:14.752Z,53.30
2023-02-13T00:16:12.598Z,52.80
2023-02-13T00:19:10.566Z,52.60
2023-02-13T00:22:09.197Z,52.80
2023-02-13T00:25:08.223Z,53.20
2023-02-13T00:28:06.057Z,53.10
2023-02-13T00:31:10.739Z,53.60
2023-02-13T00:34:08.563Z,54.40
2023-02-13T00:37:06.268Z,54.70
2023-02-13T00:40:04.704Z,54.60
2023-02-13T00:43:02.412Z,54.70
2023-02-13T00:46:00.543Z,54.70
2023-02-13T00:48:58.166Z,54.50
2023-02-13T00:51:55.919Z,54.90
2023-02-13T00:54:53.548Z,54.40
2023-02-13T00:57:51.563Z,54.90
2023-02-13T01:00:49.828Z,55.00
2023-02-13T01:03:47.807Z,55.00
2023-02-13T01:06:45.528Z,54.90
2023-02-13T01:09:43.351Z,54.80
2023-02-13T01:12:40.986Z,54.90
2023-02-13T01:15:40.381Z,55.10
2023-02-13T01:18:38.087Z,55.00
2023-02-13T01:21:35.845Z,55.10
2023-02-13T01:24:34.635Z,55.90
2023-02-13T01:27:32.988Z,56.00
2023-02-13T01:30:31.509Z,56.70
2023-02-13T01:33:31.129Z,57.20
2023-02-13T01:36:29.066Z,57.80
2023-02-13T01:39:26.911Z,57.20
2023-02-13T01:42:28.840Z,56.90
2023-02-13T01:45:30.060Z,56.20
2023-02-13T01:48:30.331Z,56.70
2023-02-13T01:51:35.470Z,56.80
2023-02-13T01:54:35.165Z,57.00
2023-02-13T01:57:34.017Z,57.70
2023-02-13T02:00:31.964Z,57.60
2023-02-13T02:03:38.527Z,57.00
2023-02-13T02:06:41.714Z,56.90
2023-02-13T02:09:42.306Z,57.00
2023-02-13T02:12:59.806Z,57.10
2023-02-13T02:15:57.926Z,56.70
2023-02-13T02:18:56.591Z,56.10
2023-02-13T02:22:15.225Z,55.90
2023-02-13T02:25:39.164Z,55.10
2023-02-13T02:29:10.434Z,54.80
2023-02-13T02:32:43.214Z,55.90
2023-02-13T02:36:04.013Z,55.30
2023-02-13T02:39:15.155Z,55.50
2023-02-13T02:42:30.888Z,55.80
2023-02-13T02:45:53.268Z,55.80
2023-02-13T02:49:12.901Z,55.80
2023-02-13T02:52:19.717Z,55.80
2023-02-13T02:55:32.942Z,55.90
2023-02-13T02:58:57.210Z,55.40
2023-02-13T03:02:12.393Z,55.60
2023-02-13T03:05:43.479Z,56.20
2023-02-13T03:08:59.915Z,56.20
2023-02-13T03:12:13.946Z,57.70
2023-02-13T03:15:11.912Z,57.80
2023-02-13T03:18:25.940Z,58.40
2023-02-13T03:22:05.365Z,58.70
2023-02-13T03:25:30.642Z,57.90
2023-02-13T03:28:57.994Z,57.10
2023-02-13T03:32:04.399Z,55.60
2023-02-13T03:35:45.938Z,54.30
2023-02-13T03:38:56.679Z,54.70
2023-02-13T03:42:03.244Z,55.20
2023-02-13T03:45:22.502Z,54.70
2023-02-13T03:48:47.491Z,54.30
2023-02-13T03:52:03.532Z,54.50
2023-02-13T03:55:23.087Z,54.00
2023-02-13T03:58:42.203Z,52.70
2023-02-13T04:01:41.137Z,52.70
2023-02-13T04:04:58.581Z,52.50
2023-02-13T04:07:56.511Z,52.00
2023-02-13T04:11:04.619Z,51.20
2023-02-13T04:14:09.279Z,51.10
2023-02-13T04:17:15.062Z,50.20
2023-02-13T04:20:13.416Z,51.00
2023-02-13T04:23:12.670Z,49.90
2023-02-13T04:26:17.250Z,48.90
2023-02-13T04:29:15.068Z,48.80
2023-02-13T04:32:13.296Z,47.00
2023-02-13T04:35:13.264Z,48.10
2023-02-13T04:38:11.038Z,47.50
2023-02-13T04:41:08.753Z,50.60
2023-02-13T04:44:06.741Z,52.60
2023-02-13T04:47:04.422Z,44.40
2023-02-13T04:50:02.283Z,53.90
2023-02-13T04:53:00.294Z,43.50
2023-02-13T04:55:58.336Z,42.90
2023-02-13T04:58:56.734Z,43.60
2023-02-13T05:01:55.011Z,45.50
2023-02-13T05:04:52.810Z,45.60
2023-02-13T05:07:50.695Z,44.00
2023-02-13T05:10:49.542Z,43.10
2023-02-13T05:13:47.281Z,43.10
2023-02-13T05:16:45.317Z,42.60
2023-02-13T05:19:43.108Z,42.70
2023-02-13T05:23:05.693Z,43.00
2023-02-13T05:26:03.822Z,42.90
2023-02-13T05:29:16.822Z,44.10
2023-02-13T05:32:14.420Z,44.10
2023-02-13T05:35:12.732Z,43.90
2023-02-13T05:38:11.452Z,44.40
2023-02-13T05:41:09.110Z,44.20
2023-02-13T05:44:06.891Z,44.10
2023-02-13T05:47:05.585Z,43.80
2023-02-13T05:50:04.506Z,45.30
2023-02-13T05:53:02.368Z,45.00
2023-02-13T05:56:00.115Z,45.60
2023-02-13T05:58:58.535Z,45.30
2023-02-13T06:01:56.379Z,44.70
2023-02-13T06:04:54.243Z,44.10
2023-02-13T06:07:52.083Z,43.60
2023-02-13T06:10:50.815Z,45.20
2023-02-13T06:13:48.766Z,45.20
2023-02-13T06:16:46.774Z,44.20
2023-02-13T06:19:44.671Z,43.90
2023-02-13T06:22:42.300Z,43.60
2023-02-13T06:25:40.103Z,43.30
2023-02-13T06:28:38.520Z,43.70
2023-02-13T06:31:36.520Z,43.90
2023-02-13T06:34:34.379Z,42.90
2023-02-13T06:37:32.187Z,42.80
2023-02-13T06:40:29.975Z,41.70
2023-02-13T06:43:28.280Z,41.80
2023-02-13T06:46:25.967Z,42.00
2023-02-13T06:49:23.982Z,41.80
2023-02-13T06:52:21.678Z,40.30
2023-02-13T06:55:21.232Z,40.10
2023-02-13T06:58:20.221Z,39.60
2023-02-13T07:01:18.194Z,39.20
2023-02-13T07:04:15.866Z,39.00
2023-02-13T07:07:13.753Z,38.90
2023-02-13T07:10:14.029Z,39.10
2023-02-13T07:13:13.565Z,39.60
2023-02-13T07:16:11.465Z,38.90
2023-02-13T07:19:09.456Z,39.50
2023-02-13T07:22:07.268Z,40.40
2023-02-13T07:25:05.101Z,41.20
2023-02-13T07:28:06.350Z,41.60
2023-02-13T07:31:07.038Z,42.80
2023-02-13T07:34:04.839Z,42.60
2023-02-13T07:37:02.701Z,43.10
2023-02-13T07:40:00.701Z,43.50
2023-02-13T07:43:02.510Z,43.00
2023-02-13T07:46:02.515Z,44.60
2023-02-13T07:49:00.358Z,46.80
2023-02-13T07:51:59.841Z,46.90
2023-02-13T07:54:58.635Z,46.80
2023-02-13T07:57:56.943Z,47.00
2023-02-13T08:00:54.727Z,47.60
2023-02-13T08:03:53.012Z,46.50
2023-02-13T08:06:50.887Z,47.20
2023-02-13T08:10:03.979Z,49.10
2023-02-13T08:13:02.112Z,48.50
2023-02-13T08:15:59.845Z,48.00
2023-02-13T08:18:57.829Z,48.30
2023-02-13T08:21:55.528Z,48.90
2023-02-13T08:24:53.820Z,48.70
2023-02-13T08:27:51.704Z,47.80
2023-02-13T08:30:49.627Z,47.60
2023-02-13T08:33:47.371Z,47.00
2023-02-13T08:36:45.669Z,47.50
2023-02-13T08:39:44.023Z,48.90
2023-02-13T08:42:42.068Z,47.00
2023-02-13T08:45:40.218Z,47.10
2023-02-13T08:48:38.328Z,46.50
2023-02-13T08:51:36.161Z,46.70
2023-02-13T08:54:36.724Z,47.30
2023-02-13T08:57:34.984Z,46.30
2023-02-13T09:00:33.416Z,49.60
2023-02-13T09:03:31.101Z,50.60
2023-02-13T09:06:29.024Z,50.90
2023-02-13T09:09:26.647Z,50.80
2023-02-13T09:12:24.637Z,52.20
2023-02-13T09:15:22.763Z,51.30
2023-02-13T09:18:21.154Z,51.00
2023-02-13T09:21:21.194Z,50.70
2023-02-13T09:24:19.097Z,51.30
2023-02-13T09:27:16.790Z,51.90
2023-02-13T09:30:23.653Z,53.00
2023-02-13T09:33:21.337Z,51.50
2023-02-13T09:36:23.059Z,53.30
2023-02-13T09:39:21.203Z,53.50
2023-02-13T09:42:28.965Z,52.40
2023-02-13T09:45:26.627Z,52.10
2023-02-13T09:48:30.832Z,51.20
2023-02-13T09:51:28.944Z,51.10
2023-02-13T09:54:29.053Z,51.60
2023-02-13T09:57:35.937Z,51.50
2023-02-13T10:00:41.016Z,53.40
2023-02-13T10:03:47.725Z,53.60
2023-02-13T10:06:50.928Z,53.10
2023-02-13T10:10:02.128Z,54.30
2023-02-13T10:13:32.496Z,52.60
2023-02-13T10:16:37.226Z,53.10
2023-02-13T10:19:47.796Z,54.00
2023-02-13T10:22:52.934Z,54.20
2023-02-13T10:26:02.344Z,53.80
2023-02-13T10:29:22.249Z,53.90
2023-02-13T10:32:28.090Z,57.40
2023-02-13T10:35:31.798Z,56.50
2023-02-13T10:38:33.190Z,57.50
2023-02-13T10:41:58.148Z,57.10
2023-02-13T10:45:20.719Z,57.80
2023-02-13T10:48:27.510Z,57.20
2023-02-13T10:51:43.606Z,57.60
2023-02-13T10:55:03.210Z,58.20
2023-02-13T10:58:13.846Z,59.30
2023-02-13T11:01:44.865Z,59.80
2023-02-13T11:04:45.230Z,59.30
2023-02-13T11:07:44.841Z,60.50
2023-02-13T11:10:42.688Z,61.60
2023-02-13T11:13:42.860Z,62.30
2023-02-13T11:17:00.755Z,65.80
2023-02-13T11:20:01.856Z,63.20
2023-02-13T11:23:19.620Z,63.10
2023-02-13T11:26:34.711Z,64.40
2023-02-13T11:29:34.984Z,64.80
2023-02-13T11:32:35.683Z,65.30
2023-02-13T11:35:36.603Z,65.80
2023-02-13T11:38:34.584Z,65.90
2023-02-13T11:41:41.980Z,66.30
2023-02-13T11:44:42.050Z,67.30
2023-02-13T11:47:41.966Z,68.70
2023-02-13T11:50:40.428Z,68.80
2023-02-13T11:53:40.554Z,68.80
2023-02-13T11:57:04.113Z,68.70
2023-02-13T12:00:19.105Z,69.00
2023-02-13T12:03:38.257Z,69.10
2023-02-13T12:06:40.419Z,69.10
2023-02-13T12:09:40.824Z,69.70
2023-02-13T12:12:45.043Z,69.90
2023-02-13T12:15:43.935Z,70.00
2023-02-13T12:18:48.181Z,70.80
2023-02-13T12:22:01.628Z,71.30
2023-02-13T12:25:30.311Z,71.20
2023-02-13T12:28:52.104Z,71.00
2023-02-13T12:32:11.144Z,70.50
2023-02-13T12:35:42.939Z,71.30
2023-02-13T12:39:02.906Z,71.20
2023-02-13T12:42:27.044Z,72.10
2023-02-13T12:45:49.087Z,71.70
2023-02-13T12:48:56.599Z,72.70
2023-02-13T12:52:23.329Z,72.60
2023-02-13T12:55:45.332Z,73.40
2023-02-13T12:59:07.022Z,73.10
2023-02-13T13:02:28.632Z,73.40
2023-02-13T13:06:03.198Z,74.60
2023-02-13T13:09:37.087Z,75.30
2023-02-13T13:12:50.662Z,75.60
2023-02-13T13:16:15.885Z,75.30
2023-02-13T13:19:36.320Z,75.20
2023-02-13T13:22:48.478Z,75.30
2023-02-13T13:26:15.407Z,75.40
2023-02-13T13:29:20.499Z,75.50
2023-02-13T13:32:22.041Z,75.50
2023-02-13T13:35:21.877Z,75.60
2023-02-13T13:38:42.163Z,75.20
2023-02-13T13:42:07.300Z,75.00
2023-02-13T13:45:25.427Z,75.10
2023-02-13T13:48:41.589Z,75.20
2023-02-13T13:51:39.612Z,75.60
2023-02-13T13:54:37.532Z,75.20
2023-02-13T14:02:28.753Z,75.40
2023-02-13T14:05:31.081Z,75.10
2023-02-13T14:09:04.444Z,75.80
2023-02-13T14:12:39.908Z,75.50
2023-02-13T14:15:53.934Z,75.00
2023-02-13T14:18:52.169Z,76.30
2023-02-13T14:21:50.758Z,76.80
2023-02-13T14:25:05.896Z,76.80
2023-02-13T14:28:08.149Z,76.40
2023-02-13T14:31:18.474Z,77.20
2023-02-13T14:34:24.975Z,77.30
2023-02-13T14:37:30.701Z,77.70
2023-02-13T14:40:48.561Z,77.90
2023-02-13T14:43:54.052Z,79.30
2023-02-13T14:46:54.882Z,78.10
2023-02-13T14:49:53.399Z,78.10
2023-02-13T14:52:58.493Z,78.50
2023-02-13T14:56:06.990Z,78.50
2023-02-13T14:59:18.499Z,78.60
2023-02-13T15:02:24.389Z,79.30
2023-02-13T15:05:25.595Z,79.50
2023-02-13T15:08:30.059Z,80.00
2023-02-13T15:11:43.601Z,80.10
2023-02-13T15:14:41.371Z,78.70
2023-02-13T15:17:40.668Z,77.70
2023-02-13T15:20:42.777Z,76.50
2023-02-13T15:23:42.071Z,76.40
2023-02-13T15:26:40.476Z,76.40
2023-02-13T15:29:49.551Z,76.10
2023-02-13T15:32:56.893Z,75.90
2023-02-13T15:36:00.271Z,75.90
2023-02-13T15:39:09.686Z,75.70
2023-02-13T15:42:08.058Z,75.60
2023-02-13T15:45:06.400Z,75.60
2023-02-13T15:48:10.197Z,75.60
2023-02-13T15:51:08.557Z,75.40
2023-02-13T15:54:25.643Z,75.90
2023-02-13T15:57:24.565Z,75.90
2023-02-13T16:00:37.480Z,76.10
2023-02-13T16:03:39.062Z,76.30
2023-02-13T16:06:37.091Z,76.30
2023-02-13T16:09:36.223Z,76.20
2023-02-13T16:12:38.706Z,75.60
2023-02-13T16:15:38.490Z,75.60
2023-02-13T16:18:36.594Z,76.10
2023-02-13T16:21:36.308Z,76.40
2023-02-13T16:24:34.810Z,76.50
2023-02-13T16:27:34.497Z,76.90
2023-02-13T16:30:36.898Z,77.10
2023-02-13T16:33:42.824Z,76.60
2023-02-13T16:36:40.945Z,77.20
2023-02-13T16:39:38.774Z,78.30
2023-02-13T16:42:36.710Z,78.40
2023-02-13T16:45:34.787Z,78.50
2023-02-13T16:48:32.715Z,78.30
2023-02-13T16:51:53.923Z,78.20
2023-02-13T16:55:02.131Z,77.50
2023-02-13T16:58:07.942Z,77.10
2023-02-13T17:01:06.191Z,77.30
2023-02-13T17:04:19.623Z,77.20
2023-02-13T17:07:35.034Z,77.40
2023-02-13T17:10:36.400Z,78.50
2023-02-13T17:13:42.170Z,79.10
2023-02-13T17:16:40.124Z,78.20
2023-02-13T17:19:38.063Z,78.10
2023-02-13T17:22:38.529Z,78.80
2023-02-13T17:25:38.372Z,79.30
2023-02-13T17:28:36.056Z,78.70
2023-02-13T17:31:34.207Z,78.70
2023-02-13T17:34:31.974Z,78.60
2023-02-13T17:37:30.656Z,77.80
2023-02-13T17:40:31.093Z,78.00
2023-02-13T17:43:30.590Z,78.10
2023-02-13T17:46:28.728Z,78.00
2023-02-13T17:49:26.514Z,78.30
2023-02-13T17:52:29.390Z,78.20
2023-02-13T17:55:31.574Z,77.90
2023-02-13T17:58:31.998Z,76.90
2023-02-13T18:01:29.801Z,77.20
2023-02-13T18:04:27.472Z,77.00
2023-02-13T18:07:25.531Z,76.70
2023-02-13T18:10:26.290Z,77.00
2023-02-13T18:13:24.196Z,77.20
2023-02-13T18:16:25.793Z,77.20
2023-02-13T18:19:23.695Z,77.10
2023-02-13T18:22:21.310Z,77.40
2023-02-13T18:25:20.844Z,77.20
2023-02-13T18:28:18.680Z,77.50
2023-02-13T18:31:17.239Z,77.10
2023-02-13T18:34:15.691Z,77.10
2023-02-13T18:37:15.541Z,76.90
2023-02-13T18:40:15.693Z,76.50
2023-02-13T18:43:15.330Z,77.10
2023-02-13T18:46:13.394Z,77.70
2023-02-13T18:49:12.911Z,77.10
2023-02-13T18:52:10.535Z,76.30
2023-02-13T18:55:08.607Z,76.10
2023-02-13T18:58:07.390Z,75.40
2023-02-13T19:01:17.484Z,74.30
2023-02-13T19:04:15.785Z,75.40
2023-02-13T19:07:13.672Z,75.10
2023-02-13T19:10:12.018Z,74.70
2023-02-13T19:13:12.051Z,76.20
2023-02-13T19:16:16.204Z,77.10
2023-02-13T19:19:17.387Z,77.20
2023-02-13T19:22:15.535Z,76.90
2023-02-13T19:25:13.294Z,76.70
2023-02-13T19:28:10.966Z,76.50
2023-02-13T19:31:12.209Z,77.00
2023-02-13T19:34:09.881Z,77.30
2023-02-13T19:37:07.677Z,77.40
2023-02-13T19:40:05.748Z,76.90
2023-02-13T19:46:28.752Z,76.10
2023-02-13T19:49:26.674Z,75.10
2023-02-13T19:52:24.291Z,75.40
2023-02-13T19:55:25.355Z,73.50
2023-02-13T19:58:22.978Z,72.70
2023-02-13T20:01:26.232Z,73.50
2023-02-13T20:04:24.990Z,74.40
2023-02-13T20:07:22.986Z,74.00
2023-02-13T20:10:20.738Z,73.80
2023-02-13T20:16:39.906Z,73.30
2023-02-13T20:19:37.936Z,75.70
2023-02-13T20:22:38.718Z,74.00
2023-02-13T20:25:37.124Z,74.40
2023-02-13T20:28:35.119Z,72.80
2023-02-13T20:31:34.717Z,71.20
2023-02-13T20:34:44.362Z,71.20
2023-02-13T20:37:47.726Z,70.70
2023-02-13T20:40:45.546Z,70.60
2023-02-13T20:43:43.681Z,70.70
2023-02-13T20:46:46.288Z,70.20
2023-02-13T20:49:44.142Z,69.20
2023-02-13T20:52:42.181Z,68.20
2023-02-13T20:55:39.947Z,67.70
2023-02-13T20:58:40.193Z,68.00
2023-02-13T21:01:41.780Z,68.10
2023-02-13T21:04:39.856Z,68.20
2023-02-13T21:11:24.137Z,67.50
2023-02-13T21:14:22.123Z,67.40
2023-02-13T21:17:19.881Z,67.00
2023-02-13T21:20:17.860Z,66.70
2023-02-13T21:23:15.644Z,66.40
2023-02-13T21:26:16.670Z,66.20
2023-02-13T21:29:14.509Z,66.20
2023-02-13T21:32:12.234Z,66.90
2023-02-13T21:35:10.154Z,69.50
2023-02-13T21:38:07.900Z,69.30
2023-02-13T21:41:08.922Z,69.30
2023-02-13T21:44:06.775Z,69.20
2023-02-13T21:47:07.054Z,71.10
2023-02-13T21:50:06.669Z,70.90
2023-02-13T21:53:04.712Z,69.70
2023-02-13T21:56:04.036Z,68.50
2023-02-13T21:59:02.025Z,67.40
2023-02-13T22:02:00.829Z,67.50
2023-02-13T22:04:58.662Z,66.50
2023-02-13T22:08:12.114Z,69.50
2023-02-13T22:11:10.101Z,69.70
2023-02-13T22:14:11.523Z,70.80
2023-02-13T22:17:09.376Z,68.40
2023-02-13T22:20:07.840Z,70.50
2023-02-13T22:23:05.609Z,70.30
2023-02-13T22:26:04.369Z,71.30
2023-02-13T22:29:05.845Z,70.20
2023-02-13T22:32:03.718Z,69.10
2023-02-13T22:35:02.382Z,71.20
2023-02-13T22:38:00.290Z,71.20
2023-02-13T22:41:04.349Z,70.20
2023-02-13T22:44:02.098Z,68.60
2023-02-13T22:46:59.933Z,68.20
2023-02-13T22:49:57.748Z,68.10
2023-02-13T22:52:55.494Z,68.20
2023-02-13T22:55:53.144Z,67.50
2023-02-13T22:58:51.120Z,67.90
2023-02-13T23:01:48.861Z,68.50
2023-02-13T23:04:48.663Z,69.40
2023-02-13T23:07:46.533Z,68.80
2023-02-13T23:11:04.355Z,68.00
2023-02-13T23:14:02.971Z,67.40
2023-02-13T23:17:16.071Z,68.10
2023-02-13T23:20:13.978Z,68.10
2023-02-13T23:23:12.234Z,68.30
2023-02-13T23:26:11.054Z,69.30
2023-02-13T23:29:08.906Z,68.80
2023-02-13T23:32:06.833Z,68.60
2023-02-13T23:35:05.137Z,69.50
2023-02-13T23:38:02.906Z,70.80
2023-02-13T23:41:08.774Z,71.80
2023-02-13T23:44:06.683Z,70.30
2023-02-13T23:47:04.488Z,70.10
2023-02-13T23:50:02.203Z,69.80
2023-02-13T23:53:01.032Z,69.70
2023-02-13T23:55:58.733Z,70.20
2023-02-13T23:58:57.404Z,70.90
